This is the latest recevied weather packets stored in our database for station/object JH7MHZ-13. If no packets are shown the sender has not sent any weather packets the latest 10 day(s).
| Time | Temp. | Humidity | Pressure | Rain* | Wind** | Luminosity | Snow |
|---|---|---|---|---|---|---|---|
| 1788588017 | 25° C | 64% | 997.2 hPa | 0 mm | - | - | - |
| 1788584416 | 25.56° C | 59% | 997.2 hPa | 0 mm | - | - | - |
| 1788580815 | 24.44° C | 56% | 997.6 hPa | 0 mm | - | - | - |
| 1788577215 | 23.89° C | 58% | 997.9 hPa | 0 mm | - | - | - |
| 1788573614 | 23.33° C | 67% | 998.1 hPa | 0 mm | - | - | - |
| 1788570014 | 21.67° C | 80% | 998.9 hPa | 0 mm | - | - | - |
| 1788566413 | 20° C | 88% | 998.7 hPa | 0 mm | - | - | - |
| 1788562813 | 16.67° C | 95% | 998.5 hPa | 0 mm | - | - | - |
| 1788559212 | 15.56° C | 98% | 998.2 hPa | 0 mm | - | - | - |
| 1788555612 | 14.44° C | 98% | 998 hPa | 0 mm | - | - | - |
| 1788552011 | 14.44° C | 98% | 997.6 hPa | 0 mm | - | - | - |
| 1788548410 | 15.56° C | 98% | 997.4 hPa | 0 mm | - | - | - |
| 1788544810 | 16.11° C | 98% | 997.2 hPa | 0 mm | - | - | - |
| 1788541209 | 16.11° C | 98% | 997.3 hPa | 0 mm | - | - | - |
| 1788537609 | 16.67° C | 98% | 997.3 hPa | 0 mm | - | - | - |
| 1788534008 | 16.67° C | 98% | 997.5 hPa | 0 mm | - | - | - |
| 1788530408 | 16.67° C | 98% | 997.5 hPa | 0 mm | - | - | - |
| 1788526807 | 16.67° C | 98% | 997.4 hPa | 0 mm | - | - | - |
| 1788523206 | 17.22° C | 98% | 997.7 hPa | 0 mm | - | - | - |
| 1788519606 | 18.33° C | 98% | 997.5 hPa | 0 mm | - | - | - |
| 1788516005 | 18.33° C | 97% | 996.8 hPa | 0 mm | - | - | - |
| 1788512405 | 19.44° C | 97% | 995.8 hPa | 2.03 mm | - | - | - |
| 1788508804 | 20° C | 96% | 995.4 hPa | 0 mm | - | - | - |
| 1788505203 | 20° C | 94% | 995.1 hPa | 0 mm | - | - | - |
| 1788501603 | 19.44° C | 95% | 995.1 hPa | 1.02 mm | - | - | - |
* Rain latest hour (hover to see other rain measurements)
** Current wind speed in m/s (hover to see current wind gust speed)